createdAt,value
2019-06-27T00:01:54.605Z,64.11
2019-06-27T00:04:26.202Z,64.40
2019-06-27T00:06:57.581Z,64.37
2019-06-27T00:09:31.924Z,64.70
2019-06-27T00:12:03.208Z,65.15
2019-06-27T00:14:34.577Z,65.11
2019-06-27T00:17:05.975Z,65.04
2019-06-27T00:19:37.298Z,65.02
2019-06-27T00:22:08.571Z,65.28
2019-06-27T00:24:39.870Z,65.26
2019-06-27T00:27:11.148Z,65.71
2019-06-27T00:29:42.455Z,65.82
2019-06-27T00:32:13.764Z,65.75
2019-06-27T00:34:45.056Z,65.92
2019-06-27T00:37:16.318Z,66.30
2019-06-27T00:39:47.630Z,66.39
2019-06-27T00:42:18.972Z,66.13
2019-06-27T00:44:50.246Z,66.42
2019-06-27T00:47:21.552Z,66.75
2019-06-27T00:49:52.841Z,66.58
2019-06-27T00:52:24.082Z,66.74
2019-06-27T00:54:57.631Z,66.46
2019-06-27T00:57:28.881Z,66.64
2019-06-27T01:00:00.143Z,66.87
2019-06-27T01:02:31.350Z,66.38
2019-06-27T01:05:02.583Z,67.13
2019-06-27T01:07:33.974Z,67.08
2019-06-27T01:10:06.105Z,67.19
2019-06-27T01:12:37.307Z,67.25
2019-06-27T01:15:09.369Z,67.85
2019-06-27T01:17:40.625Z,67.93
2019-06-27T01:20:12.144Z,68.25
2019-06-27T01:22:43.395Z,68.26
2019-06-27T01:25:14.698Z,68.36
2019-06-27T01:27:46.000Z,68.69
2019-06-27T01:30:19.313Z,69.05
2019-06-27T01:32:50.561Z,68.92
2019-06-27T01:35:21.921Z,68.97
2019-06-27T01:37:53.228Z,69.00
2019-06-27T01:40:24.475Z,69.34
2019-06-27T01:42:55.732Z,69.18
2019-06-27T01:45:47.143Z,69.71
2019-06-27T01:48:18.410Z,69.55
2019-06-27T01:50:49.664Z,69.81
2019-06-27T01:53:20.927Z,69.77
2019-06-27T01:55:52.204Z,69.81
2019-06-27T01:58:23.496Z,69.74
2019-06-27T02:00:54.812Z,69.92
2019-06-27T02:03:26.081Z,69.48
2019-06-27T02:05:57.336Z,69.17
2019-06-27T02:08:28.555Z,69.40
2019-06-27T02:10:59.808Z,69.69
2019-06-27T02:13:31.073Z,69.52
2019-06-27T02:16:02.382Z,69.48
2019-06-27T02:18:33.950Z,69.69
2019-06-27T02:21:05.194Z,69.84
2019-06-27T02:23:36.445Z,69.80
2019-06-27T02:26:08.036Z,69.85
2019-06-27T02:28:39.270Z,69.83
2019-06-27T02:31:10.428Z,69.78
2019-06-27T02:33:45.715Z,69.78
2019-06-27T02:36:20.554Z,69.82
2019-06-27T02:38:51.802Z,69.92
2019-06-27T02:41:23.020Z,69.84
2019-06-27T02:43:54.380Z,69.23
2019-06-27T02:46:25.780Z,69.48
2019-06-27T02:48:57.113Z,69.83
2019-06-27T02:51:28.409Z,69.67
2019-06-27T02:53:59.705Z,69.90
2019-06-27T02:56:30.987Z,69.74
2019-06-27T02:59:02.314Z,70.02
2019-06-27T03:01:33.631Z,70.12
2019-06-27T03:04:04.978Z,69.90
2019-06-27T03:06:36.285Z,70.04
2019-06-27T03:09:08.101Z,69.38
2019-06-27T03:11:39.379Z,69.78
2019-06-27T03:14:10.691Z,69.82
2019-06-27T03:16:42.183Z,69.95
2019-06-27T03:19:13.563Z,69.71
2019-06-27T03:21:44.877Z,69.81
2019-06-27T03:24:16.209Z,69.63
2019-06-27T03:26:47.514Z,69.73
2019-06-27T03:29:20.418Z,69.66
2019-06-27T03:31:51.851Z,69.30
2019-06-27T03:34:23.181Z,69.04
2019-06-27T03:36:54.969Z,68.82
2019-06-27T03:39:26.244Z,68.44
2019-06-27T03:41:57.529Z,68.51
2019-06-27T03:44:29.067Z,69.01
2019-06-27T03:47:00.336Z,68.75
2019-06-27T03:49:31.694Z,68.43
2019-06-27T03:52:05.582Z,68.70
2019-06-27T03:54:37.170Z,68.40
2019-06-27T03:57:08.480Z,68.66
2019-06-27T03:59:39.894Z,68.43
2019-06-27T04:02:11.224Z,68.04
2019-06-27T04:04:42.560Z,67.91
2019-06-27T04:07:13.874Z,68.26
2019-06-27T04:09:45.178Z,67.79
2019-06-27T04:12:16.545Z,67.72
2019-06-27T04:14:47.882Z,67.73
2019-06-27T04:17:19.234Z,67.47
2019-06-27T04:19:50.905Z,68.06
2019-06-27T04:22:22.329Z,67.73
2019-06-27T04:24:53.734Z,67.48
2019-06-27T04:27:25.102Z,67.15
2019-06-27T04:29:56.373Z,66.73
2019-06-27T04:32:28.526Z,66.30
2019-06-27T04:34:59.967Z,66.37
2019-06-27T04:37:31.420Z,66.99
2019-06-27T04:40:02.730Z,67.13
2019-06-27T04:42:34.028Z,67.00
2019-06-27T04:45:05.722Z,66.65
2019-06-27T04:47:36.986Z,66.83
2019-06-27T04:50:08.479Z,66.41
2019-06-27T04:52:39.812Z,66.09
2019-06-27T04:55:11.117Z,66.07
2019-06-27T04:57:42.409Z,65.21
2019-06-27T05:00:22.188Z,65.48
2019-06-27T05:02:53.459Z,65.05
2019-06-27T05:05:25.148Z,64.75
2019-06-27T05:07:56.461Z,65.12
2019-06-27T05:10:27.739Z,64.69
2019-06-27T05:12:59.055Z,64.73
2019-06-27T05:15:30.392Z,65.20
2019-06-27T05:18:01.667Z,64.52
2019-06-27T05:20:32.973Z,63.86
2019-06-27T05:23:04.323Z,63.79
2019-06-27T05:25:35.639Z,64.34
2019-06-27T05:28:06.920Z,64.25
2019-06-27T05:30:38.235Z,64.18
2019-06-27T05:33:09.514Z,63.71
2019-06-27T05:35:40.753Z,63.91
2019-06-27T05:38:12.071Z,63.27
2019-06-27T05:40:43.340Z,63.66
2019-06-27T05:43:14.651Z,63.07
2019-06-27T05:45:45.935Z,63.33
2019-06-27T05:48:17.231Z,62.70
2019-06-27T05:50:48.482Z,62.75
2019-06-27T05:53:19.763Z,62.35
2019-06-27T05:55:51.205Z,62.46
2019-06-27T05:58:22.508Z,62.26
2019-06-27T06:00:53.768Z,61.66
2019-06-27T06:03:25.094Z,61.05
2019-06-27T06:05:56.351Z,60.32
2019-06-27T06:08:27.619Z,59.56
2019-06-27T06:10:58.971Z,59.17
2019-06-27T06:13:30.264Z,58.73
2019-06-27T06:16:01.695Z,58.80
2019-06-27T06:18:32.985Z,58.43
2019-06-27T06:21:04.275Z,58.59
2019-06-27T06:23:35.530Z,58.22
2019-06-27T06:26:06.858Z,57.97
2019-06-27T06:28:38.179Z,57.77
2019-06-27T06:31:09.498Z,57.84
2019-06-27T06:33:40.833Z,57.77
2019-06-27T06:36:12.191Z,57.69
2019-06-27T06:38:43.501Z,57.25
2019-06-27T06:41:14.876Z,57.31
2019-06-27T06:43:46.179Z,57.67
2019-06-27T06:46:17.484Z,57.93
2019-06-27T06:48:52.104Z,57.93
2019-06-27T06:51:23.411Z,56.86
2019-06-27T06:53:54.681Z,56.66
2019-06-27T06:56:26.226Z,56.63
2019-06-27T06:58:57.518Z,56.10
2019-06-27T07:01:28.836Z,54.90
2019-06-27T07:04:00.111Z,54.69
2019-06-27T07:06:31.422Z,54.79
2019-06-27T07:09:02.742Z,54.83
2019-06-27T07:11:34.010Z,54.98
2019-06-27T07:14:05.295Z,54.42
2019-06-27T07:16:36.657Z,53.99
2019-06-27T07:19:07.936Z,53.51
2019-06-27T07:21:39.262Z,52.59
2019-06-27T07:24:10.567Z,52.08
2019-06-27T07:26:42.062Z,51.96
2019-06-27T07:29:13.329Z,51.83
2019-06-27T07:31:44.656Z,51.83
2019-06-27T07:34:15.977Z,51.01
2019-06-27T07:36:47.255Z,49.79
2019-06-27T07:39:18.649Z,49.08
2019-06-27T07:41:49.968Z,48.91
2019-06-27T07:44:21.241Z,48.95
2019-06-27T07:46:52.543Z,48.56
2019-06-27T07:49:23.819Z,49.38
2019-06-27T07:51:55.168Z,49.17
2019-06-27T07:54:26.514Z,49.49
2019-06-27T07:56:57.793Z,49.05
2019-06-27T07:59:29.121Z,48.33
2019-06-27T08:02:00.598Z,48.34
2019-06-27T08:04:33.271Z,47.34
2019-06-27T08:07:04.622Z,46.65
2019-06-27T08:09:36.007Z,45.62
2019-06-27T08:12:07.345Z,44.91
2019-06-27T08:14:47.930Z,44.79
2019-06-27T08:17:19.220Z,43.77
2019-06-27T08:22:48.856Z,43.71
2019-06-27T08:25:20.383Z,42.21
2019-06-27T08:27:53.741Z,41.97
2019-06-27T08:30:25.160Z,42.70
2019-06-27T08:32:56.449Z,41.58
2019-06-27T08:35:27.710Z,42.00
2019-06-27T08:37:59.034Z,41.00
2019-06-27T08:40:30.328Z,39.73
2019-06-27T08:43:02.623Z,39.44
2019-06-27T08:45:33.868Z,39.18
2019-06-27T08:48:05.199Z,39.05
2019-06-27T08:50:36.486Z,38.32
2019-06-27T08:53:08.362Z,36.95
2019-06-27T08:55:39.657Z,36.91
2019-06-27T08:58:12.670Z,37.56
2019-06-27T09:00:45.942Z,36.59
2019-06-27T09:03:23.973Z,35.79
2019-06-27T09:05:55.382Z,36.65
2019-06-27T09:08:26.808Z,35.42
2019-06-27T09:11:03.687Z,35.21
2019-06-27T09:13:38.549Z,34.62
2019-06-27T09:16:10.997Z,34.04
2019-06-27T09:19:30.543Z,33.89
2019-06-27T09:22:32.003Z,34.06
2019-06-27T09:25:07.704Z,34.07
2019-06-27T09:27:44.526Z,34.35
2019-06-27T09:30:21.064Z,34.65
2019-06-27T09:32:55.496Z,33.55
2019-06-27T09:35:26.968Z,32.75
2019-06-27T09:38:05.045Z,32.15
2019-06-27T09:40:40.131Z,32.11
2019-06-27T09:43:11.870Z,32.29
2019-06-27T09:45:44.113Z,31.56
2019-06-27T09:48:25.993Z,31.97
2019-06-27T09:50:58.604Z,31.75
2019-06-27T09:53:39.803Z,32.01
2019-06-27T09:56:19.219Z,31.21
2019-06-27T09:58:56.333Z,30.47
2019-06-27T10:01:29.530Z,30.87
2019-06-27T10:04:13.601Z,31.24
2019-06-27T10:06:49.412Z,30.13
2019-06-27T10:09:43.689Z,28.86
2019-06-27T10:12:23.622Z,29.01
2019-06-27T10:15:05.984Z,28.55
2019-06-27T10:17:39.572Z,28.79
2019-06-27T10:20:19.546Z,29.19
2019-06-27T10:23:07.817Z,27.49
2019-06-27T10:25:42.206Z,27.46
2019-06-27T10:28:30.721Z,27.10
2019-06-27T10:31:17.018Z,27.42
2019-06-27T10:33:58.609Z,26.86
2019-06-27T10:36:46.355Z,25.39
2019-06-27T10:39:28.965Z,26.11
2019-06-27T10:42:18.439Z,25.91
2019-06-27T10:44:56.125Z,25.15
2019-06-27T10:47:39.083Z,24.97
2019-06-27T10:50:23.418Z,24.57
2019-06-27T10:53:00.151Z,23.92
2019-06-27T10:55:55.741Z,23.59
2019-06-27T10:58:38.420Z,23.81
2019-06-27T11:01:17.814Z,24.15
2019-06-27T11:04:06.499Z,23.97
2019-06-27T11:15:44.431Z,24.22
2019-06-27T11:19:00.974Z,24.31
2019-06-27T11:22:00.116Z,24.39
2019-06-27T11:24:35.209Z,24.13
2019-06-27T11:27:44.685Z,23.46
2019-06-27T11:30:17.850Z,23.26
2019-06-27T11:33:06.406Z,23.79
2019-06-27T11:35:38.104Z,23.98
2019-06-27T11:38:09.388Z,24.72
2019-06-27T11:40:41.117Z,24.55
2019-06-27T11:43:12.497Z,23.55
2019-06-27T11:45:43.874Z,23.89
2019-06-27T11:48:15.197Z,23.86
2019-06-27T11:50:46.487Z,23.95
2019-06-27T11:53:17.787Z,23.79
2019-06-27T11:56:26.818Z,24.34
2019-06-27T11:58:58.161Z,23.77
2019-06-27T12:01:29.927Z,22.72
2019-06-27T12:04:01.405Z,22.97
2019-06-27T12:06:32.745Z,23.77
2019-06-27T12:09:06.504Z,23.76
2019-06-27T12:11:43.919Z,23.79
2019-06-27T12:14:15.260Z,24.15
2019-06-27T12:16:58.935Z,23.87
2019-06-27T12:20:25.800Z,23.01
2019-06-27T12:23:13.136Z,23.18
2019-06-27T12:26:32.439Z,22.33
2019-06-27T12:29:26.113Z,22.21
2019-06-27T12:32:04.825Z,22.52
2019-06-27T12:34:42.386Z,22.19
2019-06-27T12:37:13.710Z,21.70
2019-06-27T12:39:55.921Z,21.37
2019-06-27T12:42:34.608Z,22.06
2019-06-27T12:45:08.441Z,21.52
2019-06-27T12:47:39.830Z,21.78
2019-06-27T12:50:19.303Z,21.96
2019-06-27T12:52:52.104Z,22.78
2019-06-27T12:55:31.388Z,22.22
2019-06-27T12:58:09.336Z,21.92
2019-06-27T13:01:01.407Z,21.88
2019-06-27T13:03:32.908Z,22.02
2019-06-27T13:06:06.915Z,21.62
2019-06-27T13:08:39.716Z,21.26
2019-06-27T13:11:29.330Z,21.13
2019-06-27T13:14:01.355Z,20.91
2019-06-27T13:16:33.856Z,21.18
2019-06-27T13:19:06.234Z,21.33
2019-06-27T13:21:39.595Z,21.30
2019-06-27T13:24:12.617Z,21.73
2019-06-27T13:27:07.966Z,20.94
2019-06-27T13:29:44.608Z,20.56
2019-06-27T13:32:18.537Z,20.97
2019-06-27T13:34:53.401Z,21.01
2019-06-27T13:37:42.882Z,20.75
2019-06-27T13:43:38.021Z,20.73
2019-06-27T13:46:12.972Z,20.70
2019-06-27T13:48:55.787Z,20.89
2019-06-27T13:51:52.419Z,21.05
2019-06-27T13:54:39.514Z,20.75
2019-06-27T13:57:25.094Z,20.55
2019-06-27T14:03:08.798Z,20.83
2019-06-27T14:06:11.037Z,20.76
2019-06-27T14:08:43.319Z,20.64
2019-06-27T14:11:43.474Z,20.89
2019-06-27T14:14:21.872Z,21.34
2019-06-27T14:17:34.993Z,21.09
2019-06-27T14:24:54.459Z,21.49
2019-06-27T14:27:27.303Z,21.27
2019-06-27T14:30:04.645Z,21.21
2019-06-27T14:32:36.908Z,21.09
2019-06-27T14:35:15.493Z,21.17
2019-06-27T14:37:41.829Z,21.48
2019-06-27T14:40:13.706Z,21.46
2019-06-27T14:42:46.464Z,21.28
2019-06-27T14:45:21.430Z,21.48
2019-06-27T14:48:04.849Z,21.55
2019-06-27T14:50:40.474Z,21.45
2019-06-27T14:56:39.954Z,21.74
2019-06-27T14:59:22.748Z,21.45
2019-06-27T15:01:57.433Z,21.13
2019-06-27T15:04:53.792Z,21.22
2019-06-27T15:07:31.456Z,21.41
2019-06-27T15:10:50.835Z,21.93
2019-06-27T15:13:46.206Z,22.03
2019-06-27T15:16:49.475Z,22.18
2019-06-27T15:19:37.955Z,22.09
2019-06-27T15:22:36.413Z,22.11
2019-06-27T15:25:05.613Z,21.86
2019-06-27T15:28:09.746Z,22.48
2019-06-27T15:30:58.925Z,22.07
2019-06-27T15:34:00.459Z,22.61
2019-06-27T15:37:05.628Z,22.87
2019-06-27T15:44:36.745Z,22.87
2019-06-27T15:47:09.232Z,22.81
2019-06-27T15:49:40.598Z,22.66
2019-06-27T15:52:11.936Z,22.92
2019-06-27T15:54:43.221Z,23.58
2019-06-27T15:57:14.590Z,24.02
2019-06-27T15:59:45.891Z,24.15
2019-06-27T16:02:17.222Z,24.06
2019-06-27T16:04:48.518Z,24.19
2019-06-27T16:07:19.859Z,24.11
2019-06-27T16:09:52.741Z,24.83
2019-06-27T16:12:25.240Z,24.46
2019-06-27T16:14:56.552Z,24.35
2019-06-27T16:17:27.887Z,24.86
2019-06-27T16:19:59.174Z,24.98
2019-06-27T16:22:30.500Z,25.61
2019-06-27T16:25:01.807Z,25.79
2019-06-27T16:27:33.153Z,25.82
2019-06-27T16:30:04.829Z,25.92
2019-06-27T16:32:36.100Z,26.19
2019-06-27T16:35:07.565Z,26.28
2019-06-27T16:37:38.839Z,26.15
2019-06-27T16:40:10.942Z,26.43
2019-06-27T16:42:42.288Z,26.10
2019-06-27T16:45:14.383Z,26.46
2019-06-27T16:47:48.444Z,26.84
2019-06-27T16:50:19.267Z,27.09
2019-06-27T16:52:50.621Z,27.50
2019-06-27T16:55:22.354Z,27.82
2019-06-27T16:57:53.664Z,28.13
2019-06-27T17:00:26.159Z,28.09
2019-06-27T17:02:57.496Z,28.12
2019-06-27T17:05:28.904Z,27.98
2019-06-27T17:08:04.501Z,28.71
2019-06-27T17:10:35.866Z,30.10
2019-06-27T17:13:07.220Z,30.17
2019-06-27T17:15:38.565Z,29.96
2019-06-27T17:18:09.908Z,30.06
2019-06-27T17:20:41.244Z,29.94
2019-06-27T17:23:12.580Z,30.43
2019-06-27T17:25:43.966Z,30.80
2019-06-27T17:28:15.278Z,30.96
2019-06-27T17:30:46.701Z,31.36
2019-06-27T17:33:21.007Z,31.51
2019-06-27T17:35:52.277Z,32.05
2019-06-27T17:38:23.624Z,32.38
2019-06-27T17:40:54.971Z,32.76
2019-06-27T17:43:26.354Z,33.03
2019-06-27T17:45:57.665Z,33.21
2019-06-27T17:48:28.975Z,33.48
2019-06-27T17:51:01.129Z,33.68
2019-06-27T17:53:32.453Z,33.87
2019-06-27T17:56:03.905Z,34.29
2019-06-27T17:58:35.205Z,34.62
2019-06-27T18:01:06.535Z,34.70
2019-06-27T18:07:28.220Z,35.37
2019-06-27T18:09:59.694Z,35.59
2019-06-27T18:17:33.439Z,36.22
2019-06-27T18:19:59.605Z,36.69
2019-06-27T18:22:30.992Z,37.28
2019-06-27T18:25:02.413Z,37.56
2019-06-27T18:27:33.755Z,37.78
2019-06-27T18:30:05.548Z,37.74
2019-06-27T18:32:38.355Z,37.72
2019-06-27T18:35:10.105Z,37.91
2019-06-27T18:37:41.426Z,38.49
2019-06-27T18:40:13.155Z,38.76
2019-06-27T18:42:44.497Z,38.99
2019-06-27T18:45:15.818Z,39.09
2019-06-27T18:47:47.227Z,39.37
2019-06-27T18:50:19.219Z,39.78
2019-06-27T18:52:50.588Z,40.14
2019-06-27T18:55:21.876Z,40.45
2019-06-27T18:57:53.154Z,40.38
2019-06-27T19:00:25.218Z,40.63
2019-06-27T19:02:56.528Z,40.93
2019-06-27T19:05:27.838Z,41.18
2019-06-27T19:07:59.158Z,41.32
2019-06-27T19:10:30.534Z,41.74
2019-06-27T19:13:01.829Z,42.24
2019-06-27T19:15:33.152Z,42.44
2019-06-27T19:18:06.144Z,42.59
2019-06-27T19:20:43.524Z,42.95
2019-06-27T19:23:36.714Z,43.34
2019-06-27T19:26:08.053Z,43.86
2019-06-27T19:28:42.283Z,44.39
2019-06-27T19:31:17.118Z,44.63
2019-06-27T19:33:48.421Z,45.20
2019-06-27T19:36:19.806Z,45.53
2019-06-27T19:38:51.147Z,45.96
2019-06-27T19:41:22.429Z,46.37
2019-06-27T19:43:53.789Z,46.80
2019-06-27T19:46:27.818Z,47.15
2019-06-27T19:48:58.241Z,47.74
2019-06-27T19:51:29.870Z,47.75
2019-06-27T19:54:01.181Z,48.01
2019-06-27T19:56:32.498Z,47.98
2019-06-27T19:59:03.858Z,47.89
2019-06-27T20:01:35.186Z,48.00
2019-06-27T20:04:06.502Z,48.09
2019-06-27T20:06:40.513Z,48.51
2019-06-27T20:09:11.905Z,48.55
2019-06-27T20:11:43.213Z,48.10
2019-06-27T20:14:14.491Z,48.06
2019-06-27T20:16:45.799Z,47.61
2019-06-27T20:19:17.109Z,47.60
2019-06-27T20:21:48.416Z,47.71
2019-06-27T20:24:21.906Z,48.01
2019-06-27T20:26:52.729Z,47.77
2019-06-27T20:29:24.114Z,48.05
2019-06-27T20:31:55.415Z,48.15
2019-06-27T20:34:26.727Z,48.65
2019-06-27T20:37:00.401Z,48.67
2019-06-27T20:39:31.669Z,48.99
2019-06-27T20:42:03.042Z,48.97
2019-06-27T20:44:34.386Z,49.39
2019-06-27T20:47:05.705Z,49.44
2019-06-27T20:49:37.068Z,49.65
2019-06-27T20:52:08.366Z,49.89
2019-06-27T20:54:39.684Z,49.98
2019-06-27T20:57:10.976Z,50.14
2019-06-27T20:59:42.230Z,50.56
2019-06-27T21:02:13.507Z,50.73
2019-06-27T21:04:44.787Z,50.95
2019-06-27T21:07:16.094Z,51.27
2019-06-27T21:09:47.354Z,51.41
2019-06-27T21:12:20.472Z,51.57
2019-06-27T21:14:51.707Z,51.85
2019-06-27T21:17:22.973Z,52.07
2019-06-27T21:19:54.516Z,52.29
2019-06-27T21:22:25.789Z,52.43
2019-06-27T21:25:00.584Z,52.63
2019-06-27T21:27:31.918Z,52.96
2019-06-27T21:30:03.258Z,53.36
2019-06-27T21:32:34.631Z,53.53
2019-06-27T21:35:06.239Z,53.96
2019-06-27T21:37:37.540Z,54.08
2019-06-27T21:40:10.596Z,54.32
2019-06-27T21:42:41.895Z,54.50
2019-06-27T21:45:13.584Z,54.77
2019-06-27T21:47:46.162Z,55.10
2019-06-27T21:50:18.878Z,55.57
2019-06-27T21:52:50.174Z,55.61
2019-06-27T21:55:21.487Z,55.89
2019-06-27T21:57:52.772Z,56.24
2019-06-27T22:00:26.427Z,56.29
2019-06-27T22:02:57.715Z,56.46
2019-06-27T22:05:29.037Z,57.05
2019-06-27T22:08:00.445Z,57.03
2019-06-27T22:10:31.794Z,56.97
2019-06-27T22:13:03.115Z,57.45
2019-06-27T22:15:34.485Z,57.18
2019-06-27T22:18:05.802Z,57.50
2019-06-27T22:20:39.575Z,57.68
2019-06-27T22:23:10.170Z,57.90
2019-06-27T22:25:41.462Z,57.73
2019-06-27T22:28:12.736Z,57.94
2019-06-27T22:30:44.081Z,58.37
2019-06-27T22:33:15.403Z,58.11
2019-06-27T22:35:46.709Z,58.48
2019-06-27T22:38:35.880Z,58.75
2019-06-27T22:41:24.747Z,58.83
2019-06-27T22:44:14.142Z,59.38
2019-06-27T22:47:02.925Z,59.52
2019-06-27T22:49:33.462Z,59.47
2019-06-27T22:52:23.131Z,59.82
2019-06-27T22:54:57.798Z,60.02
2019-06-27T22:57:29.097Z,59.90
2019-06-27T23:00:00.400Z,60.17
2019-06-27T23:02:31.681Z,60.19
2019-06-27T23:05:02.910Z,60.08
2019-06-27T23:07:34.160Z,60.79
2019-06-27T23:10:05.627Z,60.75
2019-06-27T23:12:36.867Z,60.78
2019-06-27T23:15:08.472Z,60.85
2019-06-27T23:17:39.715Z,61.09
2019-06-27T23:20:11.541Z,61.29
2019-06-27T23:22:42.876Z,61.31
2019-06-27T23:25:14.166Z,61.58
2019-06-27T23:27:45.431Z,61.41
2019-06-27T23:30:16.711Z,61.69
2019-06-27T23:32:48.008Z,61.83
2019-06-27T23:35:19.326Z,61.96
2019-06-27T23:37:50.625Z,62.25
2019-06-27T23:40:22.219Z,62.23
2019-06-27T23:42:53.513Z,62.29
2019-06-27T23:45:24.834Z,62.16
2019-06-27T23:47:56.102Z,62.18
2019-06-27T23:50:27.391Z,62.38
2019-06-27T23:52:58.708Z,62.64
2019-06-27T23:55:30.032Z,62.75
2019-06-27T23:58:01.316Z,62.90
